createdAt,value
2018-01-30T00:01:31.731Z,87.15
2018-01-30T00:04:01.085Z,85.68
2018-01-30T00:06:31.078Z,85.72
2018-01-30T00:09:00.409Z,85.70
2018-01-30T00:11:29.826Z,83.56
2018-01-30T00:13:59.473Z,83.74
2018-01-30T00:16:28.869Z,82.63
2018-01-30T00:18:58.190Z,83.18
2018-01-30T00:21:27.817Z,81.04
2018-01-30T00:23:57.123Z,81.61
2018-01-30T00:26:26.474Z,81.39
2018-01-30T00:28:56.274Z,81.62
2018-01-30T00:31:25.649Z,81.39
2018-01-30T00:33:54.972Z,79.99
2018-01-30T00:36:24.303Z,80.69
2018-01-30T00:38:53.970Z,80.75
2018-01-30T00:41:23.270Z,79.94
2018-01-30T00:43:52.609Z,79.84
2018-01-30T00:46:21.943Z,79.92
2018-01-30T00:48:51.280Z,80.90
2018-01-30T00:51:20.650Z,80.89
2018-01-30T00:53:50.126Z,80.39
2018-01-30T00:56:19.446Z,81.25
2018-01-30T00:58:48.802Z,81.07
2018-01-30T01:01:18.114Z,80.42
2018-01-30T01:03:47.690Z,80.00
2018-01-30T01:06:17.321Z,79.62
2018-01-30T01:08:46.681Z,78.79
2018-01-30T01:11:15.971Z,79.21
2018-01-30T01:13:45.357Z,78.42
2018-01-30T01:16:14.968Z,79.32
2018-01-30T01:18:44.643Z,78.41
2018-01-30T01:21:14.059Z,77.71
2018-01-30T01:23:43.506Z,78.40
2018-01-30T01:26:13.144Z,78.55
2018-01-30T01:28:43.732Z,77.70
2018-01-30T01:31:13.061Z,77.70
2018-01-30T01:33:42.735Z,77.73
2018-01-30T01:36:12.046Z,77.64
2018-01-30T01:38:41.420Z,77.18
2018-01-30T01:41:11.028Z,78.13
2018-01-30T01:43:40.359Z,77.76
2018-01-30T01:46:09.689Z,78.34
2018-01-30T01:48:39.574Z,78.33
2018-01-30T01:51:09.026Z,78.57
2018-01-30T01:53:38.698Z,79.34
2018-01-30T01:56:08.079Z,79.01
2018-01-30T01:58:37.392Z,79.28
2018-01-30T02:01:06.862Z,78.57
2018-01-30T02:03:36.474Z,78.93
2018-01-30T02:06:05.829Z,79.09
2018-01-30T02:08:35.151Z,77.72
2018-01-30T02:11:04.538Z,77.33
2018-01-30T02:13:33.899Z,77.49
2018-01-30T02:16:03.304Z,77.70
2018-01-30T02:18:32.936Z,78.66
2018-01-30T02:21:02.371Z,80.57
2018-01-30T02:23:31.681Z,79.88
2018-01-30T02:26:01.002Z,80.67
2018-01-30T02:28:30.581Z,79.50
2018-01-30T02:30:59.891Z,79.98
2018-01-30T02:33:29.211Z,80.36
2018-01-30T02:35:58.502Z,79.84
2018-01-30T02:38:28.060Z,80.27
2018-01-30T02:40:57.711Z,80.93
2018-01-30T02:43:27.038Z,80.51
2018-01-30T02:45:56.371Z,81.39
2018-01-30T02:48:25.758Z,81.28
2018-01-30T02:50:55.134Z,81.78
2018-01-30T02:53:24.448Z,81.66
2018-01-30T02:55:54.602Z,82.56
2018-01-30T02:58:24.162Z,82.51
2018-01-30T03:00:53.494Z,82.45
2018-01-30T03:03:23.303Z,82.83
2018-01-30T03:05:52.638Z,82.97
2018-01-30T03:08:21.946Z,82.20
2018-01-30T03:10:51.294Z,82.54
2018-01-30T03:13:20.598Z,81.20
2018-01-30T03:15:49.933Z,81.26
2018-01-30T03:18:19.510Z,81.32
2018-01-30T03:20:48.818Z,81.64
2018-01-30T03:23:18.171Z,81.40
2018-01-30T03:25:47.475Z,81.36
2018-01-30T03:28:16.851Z,81.45
2018-01-30T03:30:46.167Z,81.32
2018-01-30T03:33:15.634Z,80.56
2018-01-30T03:35:44.943Z,80.89
2018-01-30T03:38:14.257Z,80.61
2018-01-30T03:40:43.602Z,81.29
2018-01-30T03:43:13.529Z,81.70
2018-01-30T03:45:42.847Z,82.65
2018-01-30T03:48:12.171Z,82.40
2018-01-30T03:50:45.863Z,82.06
2018-01-30T03:53:15.187Z,81.33
2018-01-30T03:55:44.487Z,81.52
2018-01-30T03:58:13.863Z,81.75
2018-01-30T04:00:43.264Z,81.62
2018-01-30T04:03:12.619Z,81.23
2018-01-30T04:05:41.932Z,80.86
2018-01-30T04:08:11.263Z,80.69
2018-01-30T04:10:41.267Z,79.81
2018-01-30T04:13:10.659Z,80.08
2018-01-30T04:15:40.039Z,80.20
2018-01-30T04:18:09.643Z,79.63
2018-01-30T04:20:38.992Z,78.59
2018-01-30T04:23:08.692Z,78.96
2018-01-30T04:25:38.277Z,78.87
2018-01-30T04:28:07.727Z,78.79
2018-01-30T04:30:37.191Z,78.66
2018-01-30T04:33:06.811Z,80.19
2018-01-30T04:35:36.172Z,79.28
2018-01-30T04:38:05.530Z,79.72
2018-01-30T04:40:34.857Z,79.87
2018-01-30T04:43:04.510Z,79.11
2018-01-30T04:45:33.886Z,79.56
2018-01-30T04:48:03.238Z,79.80
2018-01-30T04:50:32.896Z,79.85
2018-01-30T04:53:02.227Z,79.51
2018-01-30T04:55:31.579Z,80.28
2018-01-30T04:58:01.032Z,80.03
2018-01-30T05:00:30.512Z,79.47
2018-01-30T05:02:59.793Z,80.27
2018-01-30T05:05:29.537Z,79.73
2018-01-30T05:07:58.870Z,80.04
2018-01-30T05:10:28.182Z,79.47
2018-01-30T05:12:57.736Z,78.68
2018-01-30T05:15:27.408Z,79.79
2018-01-30T05:17:56.820Z,80.33
2018-01-30T05:20:26.126Z,80.39
2018-01-30T05:22:55.757Z,80.53
2018-01-30T05:25:25.318Z,80.05
2018-01-30T05:27:54.829Z,80.45
2018-01-30T05:30:24.482Z,79.82
2018-01-30T05:32:53.764Z,79.97
2018-01-30T05:35:23.136Z,79.14
2018-01-30T05:37:52.535Z,79.14
2018-01-30T05:40:22.192Z,78.07
2018-01-30T05:42:51.552Z,78.26
2018-01-30T05:45:21.410Z,78.36
2018-01-30T05:47:50.860Z,78.40
2018-01-30T05:50:20.200Z,78.49
2018-01-30T05:52:49.622Z,78.85
2018-01-30T05:55:19.455Z,78.41
2018-01-30T05:57:48.749Z,79.05
2018-01-30T06:00:18.205Z,78.80
2018-01-30T06:02:47.812Z,78.43
2018-01-30T06:05:17.793Z,78.39
2018-01-30T06:07:48.138Z,78.76
2018-01-30T06:10:17.595Z,78.93
2018-01-30T06:12:47.467Z,78.73
2018-01-30T06:15:16.920Z,79.13
2018-01-30T06:17:46.225Z,79.02
2018-01-30T06:20:15.566Z,79.19
2018-01-30T06:22:45.134Z,77.90
2018-01-30T06:25:14.495Z,78.33
2018-01-30T06:27:44.399Z,79.05
2018-01-30T06:30:14.654Z,78.85
2018-01-30T06:32:47.472Z,77.98
2018-01-30T06:35:17.859Z,78.78
2018-01-30T06:37:47.158Z,78.07
2018-01-30T06:40:16.617Z,78.15
2018-01-30T06:42:46.616Z,78.54
2018-01-30T06:45:15.923Z,78.36
2018-01-30T06:47:46.391Z,76.82
2018-01-30T06:50:15.732Z,77.89
2018-01-30T06:52:45.345Z,77.61
2018-01-30T06:55:14.723Z,77.67
2018-01-30T06:57:44.113Z,78.38
2018-01-30T07:00:14.600Z,77.68
2018-01-30T07:02:44.031Z,77.88
2018-01-30T07:05:13.335Z,77.97
2018-01-30T07:07:42.713Z,79.03
2018-01-30T07:10:12.330Z,78.44
2018-01-30T07:12:41.712Z,78.93
2018-01-30T07:15:11.027Z,79.89
2018-01-30T07:17:40.662Z,79.91
2018-01-30T07:20:10.022Z,80.09
2018-01-30T07:22:39.581Z,80.13
2018-01-30T07:25:08.911Z,80.20
2018-01-30T07:27:38.259Z,79.64
2018-01-30T07:30:07.613Z,79.60
2018-01-30T07:32:37.266Z,78.87
2018-01-30T07:35:06.639Z,78.27
2018-01-30T07:37:36.022Z,77.89
2018-01-30T07:40:04.871Z,78.55
2018-01-30T07:42:34.209Z,77.73
2018-01-30T07:45:03.527Z,78.68
2018-01-30T07:47:32.879Z,78.28
2018-01-30T07:50:02.298Z,78.13
2018-01-30T07:52:31.630Z,77.80
2018-01-30T07:55:01.003Z,78.29
2018-01-30T07:57:30.593Z,77.95
2018-01-30T07:59:59.927Z,78.10
2018-01-30T08:02:29.266Z,78.68
2018-01-30T08:04:58.774Z,79.31
2018-01-30T08:07:28.113Z,79.21
2018-01-30T08:09:57.482Z,79.57
2018-01-30T08:12:26.875Z,79.64
2018-01-30T08:14:56.276Z,79.94
2018-01-30T08:17:25.777Z,80.05
2018-01-30T08:19:55.091Z,79.87
2018-01-30T08:22:24.376Z,80.68
2018-01-30T08:24:53.960Z,80.30
2018-01-30T08:27:23.355Z,80.31
2018-01-30T08:29:52.671Z,79.75
2018-01-30T08:32:22.082Z,79.69
2018-01-30T08:34:51.487Z,78.65
2018-01-30T08:37:20.863Z,78.74
2018-01-30T08:39:50.188Z,78.53
2018-01-30T08:42:19.629Z,77.99
2018-01-30T08:44:49.058Z,78.42
2018-01-30T08:47:18.402Z,76.97
2018-01-30T08:49:48.021Z,77.28
2018-01-30T08:52:17.307Z,77.18
2018-01-30T08:54:46.631Z,76.74
2018-01-30T08:57:16.063Z,76.21
2018-01-30T08:59:45.734Z,75.65
2018-01-30T09:02:15.054Z,75.78
2018-01-30T09:04:44.748Z,74.44
2018-01-30T09:07:14.037Z,74.89
2018-01-30T09:09:43.671Z,73.12
2018-01-30T09:12:12.978Z,73.34
2018-01-30T09:14:42.286Z,73.07
2018-01-30T09:17:12.243Z,73.95
2018-01-30T09:19:41.864Z,72.78
2018-01-30T09:22:11.214Z,72.98
2018-01-30T09:24:40.579Z,73.05
2018-01-30T09:27:10.106Z,72.12
2018-01-30T09:29:39.710Z,73.20
2018-01-30T09:32:09.031Z,72.60
2018-01-30T09:34:38.391Z,72.36
2018-01-30T09:37:08.019Z,72.69
2018-01-30T09:39:37.414Z,72.79
2018-01-30T09:42:06.813Z,72.12
2018-01-30T09:44:36.124Z,71.73
2018-01-30T09:47:05.748Z,70.89
2018-01-30T09:49:35.070Z,70.49
2018-01-30T09:52:04.483Z,70.91
2018-01-30T09:54:33.840Z,70.04
2018-01-30T09:57:03.556Z,69.26
2018-01-30T09:59:32.870Z,68.81
2018-01-30T10:02:02.235Z,69.31
2018-01-30T10:04:31.551Z,70.05
2018-01-30T10:07:00.851Z,69.93
2018-01-30T10:09:30.146Z,69.07
2018-01-30T10:11:59.748Z,69.46
2018-01-30T10:14:29.062Z,68.90
2018-01-30T10:16:58.452Z,68.38
2018-01-30T10:19:28.336Z,68.00
2018-01-30T10:21:57.710Z,67.50
2018-01-30T10:24:27.058Z,67.86
2018-01-30T10:26:56.742Z,67.58
2018-01-30T10:29:26.119Z,67.98
2018-01-30T10:31:55.542Z,66.86
2018-01-30T10:34:25.190Z,66.71
2018-01-30T10:36:54.536Z,67.16
2018-01-30T10:39:23.907Z,65.91
2018-01-30T10:41:53.492Z,65.74
2018-01-30T10:44:22.907Z,66.21
2018-01-30T10:46:52.223Z,65.85
2018-01-30T10:49:22.003Z,64.05
2018-01-30T10:51:51.326Z,65.22
2018-01-30T10:54:20.716Z,63.73
2018-01-30T10:56:50.314Z,63.97
2018-01-30T10:59:19.662Z,63.92
2018-01-30T11:01:49.064Z,65.86
2018-01-30T11:04:19.604Z,65.65
2018-01-30T11:06:48.917Z,66.26
2018-01-30T11:09:18.235Z,66.12
2018-01-30T11:11:47.573Z,65.57
2018-01-30T11:14:17.558Z,66.04
2018-01-30T11:16:47.228Z,65.60
2018-01-30T11:19:16.514Z,66.08
2018-01-30T11:21:45.830Z,65.89
2018-01-30T11:24:15.475Z,66.71
2018-01-30T11:26:44.882Z,67.28
2018-01-30T11:29:14.235Z,67.00
2018-01-30T11:31:43.896Z,66.64
2018-01-30T11:34:13.259Z,65.92
2018-01-30T11:36:42.583Z,66.38
2018-01-30T11:39:12.019Z,66.52
2018-01-30T11:41:41.706Z,67.18
2018-01-30T11:44:11.035Z,66.94
2018-01-30T11:46:40.443Z,66.29
2018-01-30T11:49:10.148Z,66.20
2018-01-30T11:51:39.512Z,66.59
2018-01-30T11:54:08.923Z,67.65
2018-01-30T11:56:38.606Z,66.32
2018-01-30T11:59:08.091Z,65.47
2018-01-30T12:01:37.392Z,65.61
2018-01-30T12:04:06.763Z,66.54
2018-01-30T12:06:36.062Z,67.28
2018-01-30T12:09:06.276Z,67.14
2018-01-30T12:11:35.982Z,66.55
2018-01-30T12:14:05.292Z,67.12
2018-01-30T12:16:34.745Z,67.57
2018-01-30T12:19:04.381Z,67.38
2018-01-30T12:21:33.810Z,68.03
2018-01-30T12:24:03.182Z,68.69
2018-01-30T12:26:32.846Z,67.37
2018-01-30T12:29:02.174Z,67.13
2018-01-30T12:31:32.177Z,67.31
2018-01-30T12:34:01.510Z,67.31
2018-01-30T12:36:30.885Z,65.63
2018-01-30T12:39:00.563Z,65.02
2018-01-30T12:41:30.035Z,66.69
2018-01-30T12:43:59.398Z,67.93
2018-01-30T12:46:28.779Z,66.85
2018-01-30T12:48:58.142Z,66.83
2018-01-30T12:51:27.614Z,67.44
2018-01-30T12:53:57.598Z,67.76
2018-01-30T12:56:27.412Z,67.15
2018-01-30T12:58:56.934Z,67.82
2018-01-30T13:01:26.267Z,68.53
2018-01-30T13:03:55.899Z,68.20
2018-01-30T13:06:25.204Z,68.66
2018-01-30T13:08:54.671Z,68.24
2018-01-30T13:11:24.281Z,68.56
2018-01-30T13:13:53.675Z,68.00
2018-01-30T13:16:23.050Z,68.10
2018-01-30T13:18:52.742Z,67.86
2018-01-30T13:21:22.218Z,67.97
2018-01-30T13:23:52.280Z,67.23
2018-01-30T13:26:21.630Z,67.68
2018-01-30T13:28:50.984Z,66.79
2018-01-30T13:31:20.286Z,66.06
2018-01-30T13:33:49.782Z,66.68
2018-01-30T13:36:19.079Z,65.87
2018-01-30T13:38:48.655Z,65.99
2018-01-30T13:41:18.362Z,66.63
2018-01-30T13:43:47.758Z,65.79
2018-01-30T13:46:17.072Z,66.16
2018-01-30T13:48:47.092Z,66.13
2018-01-30T13:51:16.862Z,65.43
2018-01-30T13:53:46.658Z,65.25
2018-01-30T13:56:16.526Z,65.68
2018-01-30T13:58:46.101Z,65.32
2018-01-30T14:01:15.995Z,65.82
2018-01-30T14:03:46.122Z,64.63
2018-01-30T14:06:15.463Z,65.71
2018-01-30T14:08:44.958Z,65.07
2018-01-30T14:11:14.741Z,65.49
2018-01-30T14:13:44.187Z,65.80
2018-01-30T14:16:13.907Z,65.67
2018-01-30T14:18:43.834Z,66.15
2018-01-30T14:21:13.682Z,65.70
2018-01-30T14:23:43.184Z,65.23
2018-01-30T14:26:13.346Z,66.37
2018-01-30T14:28:42.643Z,65.75
2018-01-30T14:31:12.018Z,66.01
2018-01-30T14:33:41.753Z,66.23
2018-01-30T14:36:11.081Z,66.42
2018-01-30T14:38:40.543Z,66.76
2018-01-30T14:41:10.141Z,66.22
2018-01-30T14:43:39.718Z,65.92
2018-01-30T14:46:09.184Z,65.81
2018-01-30T14:48:38.761Z,66.37
2018-01-30T14:51:08.142Z,66.71
2018-01-30T14:53:37.463Z,67.63
2018-01-30T14:56:07.090Z,68.04
2018-01-30T14:58:36.563Z,68.17
2018-01-30T15:01:07.267Z,67.87
2018-01-30T15:03:36.982Z,69.30
2018-01-30T15:06:06.292Z,69.11
2018-01-30T15:08:35.782Z,69.47
2018-01-30T15:11:05.435Z,69.78
2018-01-30T15:13:34.836Z,69.96
2018-01-30T15:16:04.238Z,68.85
2018-01-30T15:18:33.917Z,69.24
2018-01-30T15:21:03.240Z,69.36
2018-01-30T15:23:32.670Z,69.68
2018-01-30T15:26:02.771Z,69.94
2018-01-30T15:28:32.165Z,69.51
2018-01-30T15:31:01.579Z,69.99
2018-01-30T15:33:31.349Z,70.80
2018-01-30T15:36:00.751Z,70.55
2018-01-30T15:38:30.098Z,70.81
2018-01-30T15:40:59.817Z,69.65
2018-01-30T15:43:29.147Z,70.17
2018-01-30T15:45:58.495Z,69.81
2018-01-30T15:48:27.845Z,70.21
2018-01-30T15:50:57.227Z,69.30
2018-01-30T15:53:27.105Z,70.08
2018-01-30T15:55:56.810Z,70.29
2018-01-30T15:58:26.145Z,69.66
2018-01-30T16:00:55.698Z,69.67
2018-01-30T16:03:25.306Z,70.57
2018-01-30T16:05:54.755Z,71.53
2018-01-30T16:08:24.572Z,72.23
2018-01-30T16:10:54.476Z,72.95
2018-01-30T16:13:23.826Z,73.80
2018-01-30T16:15:53.146Z,73.69
2018-01-30T16:18:27.691Z,73.08
2018-01-30T16:20:57.132Z,73.04
2018-01-30T16:23:27.963Z,72.02
2018-01-30T16:26:00.549Z,71.96
2018-01-30T16:28:31.623Z,71.01
2018-01-30T16:31:01.032Z,70.18
2018-01-30T16:33:30.703Z,70.41
2018-01-30T16:36:00.123Z,70.03
2018-01-30T16:38:29.540Z,71.20
2018-01-30T16:40:58.947Z,69.70
2018-01-30T16:43:28.378Z,70.58
2018-01-30T16:45:57.694Z,71.68
2018-01-30T16:48:27.323Z,71.51
2018-01-30T16:50:56.774Z,71.82
2018-01-30T16:53:26.294Z,71.25
2018-01-30T16:55:55.987Z,71.70
2018-01-30T16:58:25.363Z,72.47
2018-01-30T17:00:54.781Z,73.68
2018-01-30T17:05:45.290Z,73.30
2018-01-30T17:08:14.622Z,73.78
2018-01-30T17:10:43.907Z,74.03
2018-01-30T17:13:13.499Z,72.75
2018-01-30T17:15:42.973Z,73.18
2018-01-30T17:18:12.270Z,72.06
2018-01-30T17:20:41.953Z,71.02
2018-01-30T17:23:11.400Z,70.85
2018-01-30T17:25:40.755Z,70.90
2018-01-30T17:28:11.234Z,70.86
2018-01-30T17:30:40.590Z,71.60
2018-01-30T17:33:10.035Z,71.92
2018-01-30T17:35:39.638Z,72.47
2018-01-30T17:38:09.738Z,72.74
2018-01-30T17:40:39.332Z,72.51
2018-01-30T17:43:10.574Z,73.34
2018-01-30T17:45:39.939Z,73.63
2018-01-30T17:48:09.386Z,74.48
2018-01-30T17:50:38.767Z,74.83
2018-01-30T17:53:08.127Z,73.55
2018-01-30T17:55:37.784Z,73.34
2018-01-30T17:58:07.086Z,73.55
2018-01-30T18:00:36.528Z,73.17
2018-01-30T18:03:06.234Z,72.94
2018-01-30T18:05:44.139Z,73.04
2018-01-30T18:08:13.738Z,73.40
2018-01-30T18:10:43.063Z,74.15
2018-01-30T18:13:12.418Z,74.37
2018-01-30T18:15:42.035Z,74.29
2018-01-30T18:18:11.423Z,73.89
2018-01-30T18:20:40.772Z,74.50
2018-01-30T18:23:10.643Z,73.79
2018-01-30T18:25:40.102Z,74.81
2018-01-30T18:28:09.479Z,75.29
2018-01-30T18:30:39.172Z,74.29
2018-01-30T18:33:08.501Z,74.43
2018-01-30T18:35:37.907Z,75.00
2018-01-30T18:38:07.511Z,74.80
2018-01-30T18:40:36.828Z,74.32
2018-01-30T18:43:06.340Z,73.95
2018-01-30T18:45:36.226Z,73.94
2018-01-30T18:48:06.280Z,74.53
2018-01-30T18:50:36.353Z,75.04
2018-01-30T18:53:06.732Z,74.63
2018-01-30T18:55:36.896Z,75.00
2018-01-30T18:58:07.162Z,74.72
2018-01-30T19:00:36.636Z,75.19
2018-01-30T19:03:06.320Z,75.89
2018-01-30T19:05:35.964Z,75.87
2018-01-30T19:08:13.773Z,75.56
2018-01-30T19:10:43.669Z,74.56
2018-01-30T19:13:13.072Z,73.95
2018-01-30T19:15:42.359Z,75.00
2018-01-30T19:18:11.970Z,75.08
2018-01-30T19:20:41.264Z,75.01
2018-01-30T19:23:11.927Z,77.07
2018-01-30T19:25:48.961Z,76.23
2018-01-30T19:28:18.531Z,75.91
2018-01-30T19:30:47.872Z,74.96
2018-01-30T19:33:17.320Z,75.80
2018-01-30T19:35:46.797Z,75.91
2018-01-30T19:38:16.116Z,75.93
2018-01-30T19:40:45.725Z,76.65
2018-01-30T19:43:15.139Z,76.67
2018-01-30T19:45:44.485Z,76.83
2018-01-30T19:48:14.158Z,76.13
2018-01-30T19:50:43.470Z,76.34
2018-01-30T19:53:12.879Z,76.47
2018-01-30T19:55:43.288Z,76.57
2018-01-30T19:58:12.814Z,76.34
2018-01-30T20:00:42.128Z,76.47
2018-01-30T20:03:11.712Z,76.39
2018-01-30T20:05:41.204Z,77.33
2018-01-30T20:08:11.087Z,77.27
2018-01-30T20:10:40.703Z,77.23
2018-01-30T20:13:10.095Z,77.88
2018-01-30T20:15:39.410Z,77.96
2018-01-30T20:18:09.082Z,78.14
2018-01-30T20:20:38.709Z,77.97
2018-01-30T20:23:08.183Z,77.75
2018-01-30T20:25:37.880Z,77.93
2018-01-30T20:28:07.263Z,77.71
2018-01-30T20:30:36.939Z,77.87
2018-01-30T20:33:06.681Z,77.47
2018-01-30T20:35:36.080Z,77.61
2018-01-30T20:38:05.467Z,77.12
2018-01-30T20:40:35.122Z,76.75
2018-01-30T20:43:04.446Z,76.68
2018-01-30T20:45:33.791Z,75.32
2018-01-30T20:48:03.387Z,76.73
2018-01-30T20:50:32.747Z,77.88
2018-01-30T20:53:02.101Z,80.09
2018-01-30T20:55:31.743Z,80.50
2018-01-30T20:58:01.040Z,79.13
2018-01-30T21:00:30.417Z,80.47
2018-01-30T21:03:00.067Z,81.25
2018-01-30T21:05:29.522Z,81.69
2018-01-30T21:07:58.891Z,79.70
2018-01-30T21:10:28.389Z,79.02
2018-01-30T21:12:57.731Z,80.62
2018-01-30T21:15:27.129Z,81.10
2018-01-30T21:17:56.730Z,80.43
2018-01-30T21:20:26.087Z,81.62
2018-01-30T21:22:55.499Z,81.71
2018-01-30T21:25:25.090Z,81.07
2018-01-30T21:27:54.483Z,81.58
2018-01-30T21:30:23.798Z,81.51
2018-01-30T21:32:53.463Z,79.32
2018-01-30T21:35:22.775Z,80.42
2018-01-30T21:37:52.072Z,81.15
2018-01-30T21:40:21.421Z,79.43
2018-01-30T21:42:50.735Z,79.12
2018-01-30T21:45:20.120Z,80.18
2018-01-30T21:47:49.714Z,78.61
2018-01-30T21:50:19.060Z,78.49
2018-01-30T21:52:48.351Z,78.81
2018-01-30T21:55:18.293Z,77.64
2018-01-30T21:57:47.602Z,77.72
2018-01-30T22:00:16.919Z,78.07
2018-01-30T22:02:46.494Z,79.12
2018-01-30T22:05:15.797Z,78.31
2018-01-30T22:07:49.642Z,77.37
2018-01-30T22:10:23.136Z,77.54
2018-01-30T22:12:52.930Z,77.76
2018-01-30T22:15:22.279Z,77.79
2018-01-30T22:17:52.006Z,78.11
2018-01-30T22:20:21.342Z,79.85
2018-01-30T22:22:50.748Z,79.21
2018-01-30T22:25:20.405Z,78.75
2018-01-30T22:27:49.763Z,80.60
2018-01-30T22:30:19.083Z,80.16
2018-01-30T22:32:48.646Z,79.87
2018-01-30T22:35:17.932Z,78.41
2018-01-30T22:37:47.490Z,78.69
2018-01-30T22:40:17.067Z,80.66
2018-01-30T22:42:46.410Z,80.34
2018-01-30T22:45:15.783Z,80.30
